createdAt,value
2023-01-29T00:01:18.456Z,3.40
2023-01-29T00:06:20.650Z,2.47
2023-01-29T00:11:24.402Z,2.60
2023-01-29T00:16:26.614Z,2.78
2023-01-29T00:21:31.200Z,2.85
2023-01-29T00:26:33.496Z,2.30
2023-01-29T00:31:35.780Z,5.50
2023-01-29T00:36:37.954Z,7.43
2023-01-29T00:41:58.872Z,7.38
2023-01-29T00:47:01.191Z,5.90
2023-01-29T00:52:22.685Z,2.90
2023-01-29T00:57:25.627Z,2.90
2023-01-29T01:02:47.166Z,3.20
2023-01-29T01:07:50.371Z,2.70
2023-01-29T01:12:59.936Z,4.03
2023-01-29T01:18:02.756Z,6.38
2023-01-29T01:23:05.552Z,7.70
2023-01-29T01:28:12.279Z,8.02
2023-01-29T01:33:14.457Z,5.97
2023-01-29T01:38:16.864Z,4.60
2023-01-29T01:43:19.080Z,4.15
2023-01-29T01:48:25.453Z,2.92
2023-01-29T01:53:30.982Z,2.70
2023-01-29T01:58:42.834Z,2.75
2023-01-29T02:04:12.822Z,3.50
2023-01-29T02:09:36.416Z,4.57
2023-01-29T02:14:40.510Z,6.10
2023-01-29T02:20:14.904Z,6.70
2023-01-29T02:25:35.748Z,7.57
2023-01-29T02:30:40.766Z,5.95
2023-01-29T02:35:51.150Z,6.10
2023-01-29T02:41:20.757Z,5.35
2023-01-29T02:46:41.716Z,5.47
2023-01-29T02:51:45.929Z,5.95
2023-01-29T02:56:48.070Z,4.80
2023-01-29T03:01:53.651Z,4.18
2023-01-29T03:06:58.825Z,4.28
2023-01-29T03:12:20.071Z,6.10
2023-01-29T03:17:24.752Z,7.07
2023-01-29T03:22:27.489Z,4.85
2023-01-29T03:28:03.539Z,3.58
2023-01-29T03:33:12.630Z,4.70
2023-01-29T03:38:15.977Z,4.13
2023-01-29T03:43:40.263Z,3.08
2023-01-29T03:48:48.720Z,2.92
2023-01-29T03:53:56.955Z,3.20
2023-01-29T03:59:00.568Z,3.38
2023-01-29T04:04:22.948Z,2.92
2023-01-29T04:09:30.802Z,3.25
2023-01-29T04:14:33.363Z,2.95
2023-01-29T04:19:37.230Z,2.88
2023-01-29T04:24:39.443Z,3.15
2023-01-29T04:29:51.874Z,2.72
2023-01-29T04:34:57.604Z,2.85
2023-01-29T04:40:20.253Z,2.95
2023-01-29T04:45:22.581Z,4.32
2023-01-29T04:50:29.429Z,3.22
2023-01-29T04:55:39.469Z,3.42
2023-01-29T05:00:43.126Z,6.40
2023-01-29T05:05:46.840Z,7.10
2023-01-29T05:10:50.015Z,5.55
2023-01-29T05:15:58.400Z,6.13
2023-01-29T05:21:02.517Z,8.15
2023-01-29T05:26:05.158Z,7.50
2023-01-29T05:31:09.427Z,8.27
2023-01-29T05:36:11.666Z,4.10
2023-01-29T05:41:13.860Z,6.18
2023-01-29T05:46:16.086Z,3.28
2023-01-29T05:51:18.294Z,4.88
2023-01-29T05:56:20.512Z,4.35
2023-01-29T06:01:23.956Z,4.70
2023-01-29T06:06:26.109Z,5.40
2023-01-29T06:11:28.244Z,7.32
2023-01-29T06:16:30.626Z,7.22
2023-01-29T06:21:32.861Z,7.03
2023-01-29T06:26:35.085Z,8.05
2023-01-29T06:31:39.044Z,8.15
2023-01-29T06:50:55.421Z,5.18
2023-01-29T06:55:57.601Z,5.75
2023-01-29T07:01:09.999Z,3.22
2023-01-29T07:06:12.179Z,3.00
2023-01-29T07:11:14.375Z,4.47
2023-01-29T07:16:16.695Z,4.82
2023-01-29T07:21:19.162Z,4.50
2023-01-29T07:26:21.345Z,6.88
2023-01-29T07:31:23.572Z,4.38
2023-01-29T07:36:25.818Z,4.95
2023-01-29T07:41:28.029Z,6.95
2023-01-29T07:46:30.183Z,6.25
2023-01-29T07:51:32.353Z,5.30
2023-01-29T07:56:34.549Z,4.38
2023-01-29T08:01:36.763Z,5.30
2023-01-29T08:06:38.982Z,3.05
2023-01-29T08:11:41.162Z,4.95
2023-01-29T08:16:43.358Z,5.10
2023-01-29T08:21:45.642Z,5.18
2023-01-29T08:26:47.772Z,4.07
2023-01-29T08:31:49.981Z,4.80
2023-01-29T08:36:53.581Z,5.82
2023-01-29T08:41:56.462Z,5.90
2023-01-29T08:46:59.886Z,5.38
2023-01-29T08:52:03.187Z,5.22
2023-01-29T08:57:06.183Z,5.07
2023-01-29T09:02:09.667Z,5.43
2023-01-29T09:07:15.000Z,5.40
2023-01-29T09:12:17.224Z,5.20
2023-01-29T09:17:19.470Z,6.07
2023-01-29T09:22:21.767Z,7.15
2023-01-29T09:27:24.026Z,6.72
2023-01-29T09:32:52.073Z,7.18
2023-01-29T09:37:49.037Z,8.98
2023-01-29T09:42:55.691Z,9.20
2023-01-29T09:47:59.645Z,8.70
2023-01-29T09:53:05.204Z,7.50
2023-01-29T09:58:14.382Z,6.13
2023-01-29T10:03:25.720Z,6.63
2023-01-29T10:08:42.900Z,6.47
2023-01-29T10:13:50.695Z,6.88
2023-01-29T10:18:59.149Z,7.22
2023-01-29T10:24:13.474Z,7.05
2023-01-29T10:29:18.872Z,6.93
2023-01-29T10:34:23.724Z,6.70
2023-01-29T10:39:27.023Z,7.57
2023-01-29T10:44:33.036Z,8.00
2023-01-29T10:49:38.691Z,7.05
2023-01-29T10:54:43.896Z,6.40
2023-01-29T10:59:51.976Z,6.32
2023-01-29T11:04:54.239Z,7.13
2023-01-29T11:09:59.511Z,7.20
2023-01-29T11:15:07.906Z,6.40
2023-01-29T11:20:26.780Z,7.57
2023-01-29T11:25:30.208Z,6.65
2023-01-29T11:30:35.500Z,6.30
2023-01-29T11:35:39.863Z,7.65
2023-01-29T11:40:42.812Z,7.20
2023-01-29T11:45:45.038Z,7.10
2023-01-29T11:50:55.958Z,6.70
2023-01-29T11:55:58.283Z,6.75
2023-01-29T12:06:09.174Z,5.75
2023-01-29T12:11:13.393Z,5.95
2023-01-29T12:16:28.916Z,6.38
2023-01-29T12:21:37.260Z,5.95
2023-01-29T12:26:52.042Z,6.30
2023-01-29T12:32:12.976Z,5.95
2023-01-29T12:37:30.227Z,6.90
2023-01-29T12:42:32.473Z,6.80
2023-01-29T12:47:34.785Z,6.88
2023-01-29T12:52:41.892Z,7.07
2023-01-29T12:58:00.470Z,7.40
2023-01-29T13:03:13.736Z,6.82
2023-01-29T13:08:22.108Z,6.90
2023-01-29T13:13:31.919Z,8.43
2023-01-29T13:18:37.119Z,7.20
2023-01-29T13:23:43.044Z,7.28
2023-01-29T13:28:45.472Z,7.43
2023-01-29T13:34:06.071Z,7.38
2023-01-29T13:39:09.272Z,6.38
2023-01-29T13:44:34.361Z,7.93
2023-01-29T13:49:41.795Z,7.60
2023-01-29T13:54:50.794Z,6.82
2023-01-29T13:59:54.194Z,7.70
2023-01-29T14:05:15.143Z,6.70
2023-01-29T14:10:19.221Z,6.35
2023-01-29T14:15:23.224Z,7.97
2023-01-29T14:20:39.100Z,6.38
2023-01-29T14:25:47.703Z,6.60
2023-01-29T14:30:50.448Z,6.40
2023-01-29T14:35:53.458Z,7.55
2023-01-29T14:41:25.090Z,5.15
2023-01-29T14:46:36.253Z,6.82
2023-01-29T14:51:40.755Z,5.97
2023-01-29T14:56:48.921Z,7.32
2023-01-29T15:01:56.271Z,7.50
2023-01-29T15:12:03.208Z,6.95
2023-01-29T15:17:23.462Z,7.05
2023-01-29T15:22:26.454Z,5.88
2023-01-29T15:27:28.953Z,6.53
2023-01-29T15:32:40.616Z,5.40
2023-01-29T15:37:42.834Z,6.25
2023-01-29T15:42:48.722Z,6.50
2023-01-29T15:47:51.185Z,8.50
2023-01-29T15:52:54.975Z,8.80
2023-01-29T15:57:57.951Z,8.52
2023-01-29T16:03:02.770Z,9.10
2023-01-29T16:08:05.641Z,8.98
2023-01-29T16:13:16.718Z,10.02
2023-01-29T16:18:23.701Z,10.68
2023-01-29T16:23:28.007Z,9.10
2023-01-29T16:28:30.518Z,9.40
2023-01-29T16:33:36.697Z,10.38
2023-01-29T16:38:43.415Z,9.20
2023-01-29T16:43:49.932Z,11.35
2023-01-29T16:48:52.738Z,10.95
2023-01-29T16:53:58.793Z,10.45
2023-01-29T16:59:03.092Z,9.98
2023-01-29T17:04:08.384Z,10.40
2023-01-29T17:09:19.587Z,11.38
2023-01-29T17:14:23.837Z,12.35
2023-01-29T17:19:26.411Z,11.15
2023-01-29T17:24:28.625Z,9.20
2023-01-29T17:29:31.706Z,9.93
2023-01-29T17:34:33.921Z,8.95
2023-01-29T17:39:37.055Z,9.40
2023-01-29T17:44:39.544Z,9.73
2023-01-29T17:49:42.070Z,8.02
2023-01-29T17:54:44.278Z,8.30
2023-01-29T17:59:47.117Z,8.02
2023-01-29T18:04:51.195Z,7.80
2023-01-29T18:09:53.356Z,10.82
2023-01-29T18:14:55.605Z,10.30
2023-01-29T18:19:59.364Z,9.52
2023-01-29T18:25:02.486Z,8.05
2023-01-29T18:30:05.630Z,9.45
2023-01-29T18:35:08.425Z,7.97
2023-01-29T18:40:14.072Z,10.27
2023-01-29T18:45:17.099Z,8.60
2023-01-29T18:50:19.811Z,7.50
2023-01-29T18:55:23.809Z,8.10
2023-01-29T19:00:25.994Z,7.50
2023-01-29T19:05:28.219Z,8.73
2023-01-29T19:10:30.366Z,8.27
2023-01-29T19:15:32.841Z,8.05
2023-01-29T19:20:34.991Z,8.35
2023-01-29T19:25:38.964Z,8.20
2023-01-29T19:30:41.176Z,8.00
2023-01-29T19:35:46.418Z,8.82
2023-01-29T19:40:48.960Z,6.95
2023-01-29T19:45:57.135Z,8.98
2023-01-29T19:51:02.135Z,9.20
2023-01-29T19:56:05.882Z,11.40
2023-01-29T20:01:13.615Z,7.63
2023-01-29T20:06:17.576Z,8.70
2023-01-29T20:11:21.055Z,7.32
2023-01-29T20:16:23.545Z,7.93
2023-01-29T20:21:25.814Z,8.73
2023-01-29T20:26:28.296Z,7.55
2023-01-29T20:31:30.618Z,7.65
2023-01-29T20:36:32.911Z,9.05
2023-01-29T20:41:35.242Z,6.53
2023-01-29T20:46:38.397Z,8.13
2023-01-29T20:51:40.592Z,7.28
2023-01-29T20:56:43.674Z,5.95
2023-01-29T21:01:46.954Z,5.43
2023-01-29T21:06:49.360Z,6.05
2023-01-29T21:11:51.670Z,5.70
2023-01-29T21:16:53.913Z,6.57
2023-01-29T21:21:58.231Z,5.97
2023-01-29T21:27:00.384Z,6.28
2023-01-29T21:32:02.667Z,5.97
2023-01-29T21:37:05.060Z,6.05
2023-01-29T21:42:25.806Z,5.95
2023-01-29T21:47:27.941Z,5.82
2023-01-29T21:52:30.145Z,4.88
2023-01-29T21:57:32.361Z,6.30
2023-01-29T22:02:34.614Z,5.90
2023-01-29T22:07:49.097Z,5.85
2023-01-29T22:12:54.032Z,6.50
2023-01-29T22:17:56.249Z,7.72
2023-01-29T22:23:01.103Z,6.78
2023-01-29T22:28:03.372Z,7.57
2023-01-29T22:33:05.854Z,7.88
2023-01-29T22:38:09.016Z,6.40
2023-01-29T22:43:11.209Z,6.20
2023-01-29T22:48:13.882Z,6.22
2023-01-29T22:53:15.978Z,6.93
2023-01-29T22:58:18.157Z,7.07
2023-01-29T23:03:20.463Z,6.30
2023-01-29T23:08:22.715Z,7.10
2023-01-29T23:13:24.996Z,6.75
2023-01-29T23:18:27.370Z,7.75
2023-01-29T23:23:29.848Z,7.15
2023-01-29T23:28:31.961Z,6.93
2023-01-29T23:33:34.138Z,6.63
2023-01-29T23:38:36.273Z,8.55
2023-01-29T23:43:39.119Z,5.65
2023-01-29T23:48:41.352Z,7.47
2023-01-29T23:53:43.571Z,7.70
2023-01-29T23:58:46.286Z,8.02
